createdAt,value
2023-03-26T00:00:48.485Z,27.85
2023-03-26T00:03:16.993Z,21.75
2023-03-26T00:05:45.856Z,24.40
2023-03-26T00:08:12.580Z,20.70
2023-03-26T00:10:41.428Z,15.70
2023-03-26T00:13:08.328Z,15.23
2023-03-26T00:15:36.745Z,15.75
2023-03-26T00:18:03.996Z,13.77
2023-03-26T00:20:34.575Z,12.70
2023-03-26T00:23:04.043Z,11.88
2023-03-26T00:25:32.009Z,10.10
2023-03-26T00:27:58.606Z,9.93
2023-03-26T00:30:25.130Z,9.85
2023-03-26T00:32:53.582Z,7.28
2023-03-26T00:35:22.352Z,8.10
2023-03-26T00:37:51.536Z,7.20
2023-03-26T00:40:18.270Z,6.43
2023-03-26T00:42:44.815Z,7.30
2023-03-26T00:45:11.613Z,6.32
2023-03-26T00:47:40.105Z,6.35
2023-03-26T00:50:15.274Z,6.03
2023-03-26T00:52:43.878Z,5.03
2023-03-26T00:55:11.000Z,3.92
2023-03-26T00:57:38.477Z,3.10
2023-03-26T01:00:16.879Z,2.85
2023-03-26T01:02:47.015Z,2.22
2023-03-26T01:05:53.024Z,1.77
2023-03-26T01:08:25.712Z,1.63
2023-03-26T01:11:02.733Z,2.35
2023-03-26T01:13:32.987Z,1.65
2023-03-26T01:16:02.037Z,1.70
2023-03-26T01:18:33.962Z,1.52
2023-03-26T01:21:05.743Z,2.00
2023-03-26T01:23:49.087Z,1.50
2023-03-26T01:26:26.234Z,1.40
2023-03-26T01:28:57.384Z,2.10
2023-03-26T01:31:37.202Z,1.85
2023-03-26T01:34:15.850Z,1.88
2023-03-26T01:37:08.738Z,2.30
2023-03-26T01:39:49.290Z,1.80
2023-03-26T01:42:43.923Z,2.75
2023-03-26T01:45:16.670Z,1.85
2023-03-26T01:47:45.162Z,2.33
2023-03-26T01:50:12.345Z,1.90
2023-03-26T01:52:39.386Z,2.67
2023-03-26T01:55:11.610Z,2.55
2023-03-26T01:58:02.586Z,2.67
2023-03-26T02:00:33.571Z,3.15
2023-03-26T02:03:18.924Z,3.03
2023-03-26T02:06:15.714Z,2.10
2023-03-26T02:08:53.998Z,2.53
2023-03-26T02:11:21.577Z,2.53
2023-03-26T02:13:51.222Z,2.33
2023-03-26T02:16:19.846Z,2.25
2023-03-26T02:18:51.277Z,2.45
2023-03-26T02:21:21.418Z,1.73
2023-03-26T02:23:57.757Z,2.88
2023-03-26T02:26:25.299Z,2.58
2023-03-26T02:28:51.872Z,3.17
2023-03-26T02:31:19.422Z,2.05
2023-03-26T02:33:47.646Z,2.60
2023-03-26T02:36:14.540Z,2.22
2023-03-26T02:38:41.771Z,2.28
2023-03-26T02:41:08.393Z,2.50
2023-03-26T02:43:34.965Z,3.08
2023-03-26T02:46:01.560Z,2.10
2023-03-26T02:48:28.152Z,1.83
2023-03-26T02:50:54.889Z,2.35
2023-03-26T02:53:24.113Z,2.40
2023-03-26T02:55:50.886Z,2.95
2023-03-26T02:58:17.670Z,2.58
2023-03-26T03:00:46.746Z,2.47
2023-03-26T03:03:14.158Z,3.10
2023-03-26T03:05:43.285Z,1.95
2023-03-26T03:08:10.353Z,2.28
2023-03-26T03:10:37.794Z,2.20
2023-03-26T03:13:07.751Z,2.17
2023-03-26T03:15:35.034Z,2.42
2023-03-26T03:18:01.909Z,2.33
2023-03-26T03:20:30.311Z,1.90
2023-03-26T03:22:56.854Z,2.03
2023-03-26T03:25:23.412Z,2.38
2023-03-26T03:27:50.284Z,2.05
2023-03-26T03:30:17.062Z,1.15
2023-03-26T03:32:43.624Z,1.70
2023-03-26T03:35:10.210Z,2.17
2023-03-26T03:37:36.770Z,2.28
2023-03-26T03:40:07.471Z,2.33
2023-03-26T03:42:34.066Z,1.88
2023-03-26T03:45:01.961Z,1.30
2023-03-26T03:47:28.523Z,2.30
2023-03-26T03:49:56.937Z,2.28
2023-03-26T03:52:23.481Z,1.83
2023-03-26T03:54:51.062Z,2.42
2023-03-26T03:57:18.841Z,1.83
2023-03-26T03:59:47.775Z,2.22
2023-03-26T04:02:21.254Z,1.83
2023-03-26T04:04:50.126Z,2.58
2023-03-26T04:07:16.824Z,1.90
2023-03-26T04:09:43.385Z,2.10
2023-03-26T04:12:09.923Z,2.28
2023-03-26T04:14:36.603Z,1.88
2023-03-26T04:17:05.391Z,1.20
2023-03-26T04:19:31.999Z,2.35
2023-03-26T04:22:02.719Z,1.95
2023-03-26T04:24:29.914Z,1.88
2023-03-26T04:27:01.201Z,2.67
2023-03-26T04:29:30.688Z,2.17
2023-03-26T04:32:06.743Z,2.65
2023-03-26T04:34:34.187Z,2.10
2023-03-26T04:37:05.036Z,2.08
2023-03-26T04:39:33.990Z,1.90
2023-03-26T04:42:00.637Z,2.70
2023-03-26T04:44:30.322Z,2.13
2023-03-26T04:46:56.980Z,1.65
2023-03-26T04:49:23.530Z,2.25
2023-03-26T04:51:50.136Z,2.50
2023-03-26T04:54:22.418Z,2.83
2023-03-26T04:56:58.440Z,2.70
2023-03-26T05:01:58.009Z,3.17
2023-03-26T05:04:24.867Z,2.58
2023-03-26T05:06:51.693Z,3.05
2023-03-26T05:09:18.958Z,2.97
2023-03-26T05:11:45.663Z,2.85
2023-03-26T05:14:12.314Z,2.38
2023-03-26T05:16:39.600Z,2.70
2023-03-26T05:19:06.993Z,2.50
2023-03-26T05:21:33.586Z,2.25
2023-03-26T05:24:00.492Z,2.45
2023-03-26T05:26:27.176Z,2.35
2023-03-26T05:28:53.723Z,2.65
2023-03-26T05:31:23.646Z,1.95
2023-03-26T05:33:50.675Z,2.15
2023-03-26T05:36:17.386Z,3.15
2023-03-26T05:38:50.028Z,1.90
2023-03-26T05:41:17.635Z,2.15
2023-03-26T05:43:48.899Z,2.75
2023-03-26T05:46:15.680Z,2.67
2023-03-26T05:48:42.403Z,2.22
2023-03-26T05:51:09.062Z,2.75
2023-03-26T05:53:35.856Z,2.80
2023-03-26T05:56:02.468Z,2.20
2023-03-26T05:58:30.969Z,2.03
2023-03-26T06:00:59.977Z,2.05
2023-03-26T06:03:26.971Z,2.50
2023-03-26T06:05:53.733Z,2.13
2023-03-26T06:08:21.913Z,2.35
2023-03-26T06:10:49.839Z,2.40
2023-03-26T06:13:17.388Z,2.35
2023-03-26T06:15:44.025Z,2.05
2023-03-26T06:18:11.252Z,2.08
2023-03-26T06:20:37.839Z,2.38
2023-03-26T06:23:04.441Z,2.90
2023-03-26T06:25:31.140Z,2.28
2023-03-26T06:27:57.787Z,2.10
2023-03-26T06:30:24.355Z,3.00
2023-03-26T06:32:51.024Z,3.72
2023-03-26T06:35:17.631Z,2.60
2023-03-26T06:37:44.307Z,2.58
2023-03-26T06:40:11.414Z,3.42
2023-03-26T06:43:08.174Z,2.35
2023-03-26T06:45:24.972Z,2.92
2023-03-26T06:47:51.534Z,2.45
2023-03-26T06:50:18.536Z,3.05
2023-03-26T06:52:45.212Z,3.65
2023-03-26T06:55:12.868Z,2.58
2023-03-26T06:57:39.505Z,2.97
2023-03-26T07:00:08.724Z,4.82
2023-03-26T07:02:35.940Z,5.38
2023-03-26T07:05:02.609Z,5.55
2023-03-26T07:07:29.190Z,5.45
2023-03-26T07:09:55.740Z,5.10
2023-03-26T07:12:22.283Z,5.50
2023-03-26T07:14:48.950Z,4.35
2023-03-26T07:17:15.817Z,6.07
2023-03-26T07:19:42.382Z,7.10
2023-03-26T07:22:22.065Z,6.22
2023-03-26T07:24:49.462Z,6.95
2023-03-26T07:27:16.466Z,6.20
2023-03-26T07:29:52.323Z,7.88
2023-03-26T07:35:28.327Z,6.13
2023-03-26T07:38:01.094Z,7.65
2023-03-26T07:40:36.822Z,8.07
2023-03-26T07:43:12.350Z,8.23
2023-03-26T07:45:44.148Z,8.88
2023-03-26T07:48:21.058Z,9.00
2023-03-26T07:50:48.644Z,9.15
2023-03-26T07:53:15.452Z,8.40
2023-03-26T07:56:16.698Z,9.88
2023-03-26T07:58:49.312Z,10.68
2023-03-26T08:01:36.413Z,10.25
2023-03-26T08:04:24.116Z,10.63
2023-03-26T08:07:05.235Z,11.10
2023-03-26T08:09:38.801Z,10.50
2023-03-26T08:12:08.057Z,8.98
2023-03-26T08:14:54.537Z,8.70
2023-03-26T08:17:40.606Z,10.27
2023-03-26T08:20:44.875Z,9.73
2023-03-26T08:23:27.806Z,9.30
2023-03-26T08:26:05.096Z,9.45
2023-03-26T08:28:58.688Z,10.02
2023-03-26T08:31:35.058Z,10.98
2023-03-26T08:34:02.347Z,9.10
2023-03-26T08:36:29.537Z,9.23
2023-03-26T08:38:57.421Z,9.90
2023-03-26T08:41:51.878Z,8.88
2023-03-26T08:44:51.141Z,12.90
2023-03-26T08:47:46.585Z,11.23
2023-03-26T08:50:19.036Z,10.98
2023-03-26T08:53:14.355Z,11.55
2023-03-26T08:55:44.925Z,8.85
2023-03-26T08:58:35.456Z,10.30
2023-03-26T09:01:33.158Z,10.25
2023-03-26T09:04:27.911Z,8.70
2023-03-26T09:07:00.475Z,9.20
2023-03-26T09:09:56.171Z,8.95
2023-03-26T09:12:50.714Z,9.45
2023-03-26T09:15:38.618Z,10.65
2023-03-26T09:18:44.800Z,9.43
2023-03-26T09:22:07.556Z,8.90
2023-03-26T09:24:58.296Z,9.27
2023-03-26T09:27:36.012Z,7.85
2023-03-26T09:30:20.588Z,9.00
2023-03-26T09:33:17.687Z,7.55
2023-03-26T09:36:04.332Z,9.40
2023-03-26T09:38:44.027Z,7.63
2023-03-26T09:41:17.893Z,8.65
2023-03-26T09:44:12.650Z,8.25
2023-03-26T09:47:12.988Z,7.72
2023-03-26T09:49:59.749Z,9.60
2023-03-26T09:53:03.198Z,6.80
2023-03-26T09:55:34.524Z,8.52
2023-03-26T09:58:16.166Z,6.88
2023-03-26T10:01:05.747Z,5.60
2023-03-26T10:03:53.303Z,5.15
2023-03-26T10:06:37.273Z,5.10
2023-03-26T10:09:37.161Z,4.70
2023-03-26T10:12:18.746Z,3.92
2023-03-26T10:15:12.850Z,4.18
2023-03-26T10:18:26.604Z,4.07
2023-03-26T10:21:11.588Z,5.78
2023-03-26T10:24:07.175Z,4.32
2023-03-26T10:27:09.007Z,4.55
2023-03-26T10:29:57.947Z,4.25
2023-03-26T10:32:46.808Z,4.63
2023-03-26T10:35:22.387Z,4.07
2023-03-26T10:38:06.518Z,3.88
2023-03-26T10:40:45.140Z,3.40
2023-03-26T10:43:41.932Z,4.07
2023-03-26T10:49:24.993Z,4.28
2023-03-26T10:52:06.987Z,3.13
2023-03-26T10:54:56.728Z,3.17
2023-03-26T10:57:58.807Z,4.03
2023-03-26T11:00:29.037Z,3.22
2023-03-26T11:03:23.199Z,3.33
2023-03-26T11:06:25.545Z,3.50
2023-03-26T11:09:02.009Z,2.25
2023-03-26T11:11:41.993Z,2.60
2023-03-26T11:14:34.455Z,2.40
2023-03-26T11:17:01.605Z,1.95
2023-03-26T11:19:43.187Z,2.10
2023-03-26T11:22:21.845Z,2.70
2023-03-26T11:25:00.371Z,2.33
2023-03-26T11:28:05.050Z,1.67
2023-03-26T11:30:58.511Z,2.28
2023-03-26T11:33:35.060Z,2.80
2023-03-26T11:36:07.246Z,1.60
2023-03-26T11:38:44.572Z,1.90
2023-03-26T11:41:15.124Z,2.10
2023-03-26T11:43:41.650Z,2.33
2023-03-26T11:46:14.116Z,1.77
2023-03-26T11:48:46.230Z,2.00
2023-03-26T11:51:26.532Z,1.92
2023-03-26T11:53:54.555Z,1.42
2023-03-26T11:56:27.765Z,1.02
2023-03-26T11:59:05.779Z,1.60
2023-03-26T12:01:55.398Z,1.02
2023-03-26T12:04:40.691Z,1.75
2023-03-26T12:07:21.122Z,1.20
2023-03-26T12:10:17.924Z,1.40
2023-03-26T12:12:47.550Z,1.88
2023-03-26T12:15:19.891Z,1.38
2023-03-26T12:17:51.391Z,1.70
2023-03-26T12:20:24.924Z,1.33
2023-03-26T12:23:01.901Z,1.63
2023-03-26T12:25:33.785Z,1.63
2023-03-26T12:28:05.414Z,1.63
2023-03-26T12:30:39.670Z,1.95
2023-03-26T12:33:15.117Z,1.67
2023-03-26T12:35:42.788Z,1.92
2023-03-26T12:38:35.839Z,1.67
2023-03-26T12:44:44.871Z,2.10
2023-03-26T12:44:56.033Z,1.83
2023-03-26T12:48:00.299Z,2.08
2023-03-26T12:50:14.383Z,2.22
2023-03-26T12:53:25.587Z,2.22
2023-03-26T12:56:01.637Z,1.65
2023-03-26T12:58:51.399Z,1.70
2023-03-26T13:01:41.833Z,1.95
2023-03-26T13:04:41.446Z,2.05
2023-03-26T13:07:40.514Z,2.15
2023-03-26T13:10:29.307Z,1.65
2023-03-26T13:13:18.707Z,1.27
2023-03-26T13:15:54.047Z,1.65
2023-03-26T13:18:52.617Z,1.40
2023-03-26T13:21:53.115Z,2.00
2023-03-26T13:24:45.377Z,2.10
2023-03-26T13:27:30.005Z,1.77
2023-03-26T13:30:02.876Z,1.67
2023-03-26T13:32:40.986Z,4.00
2023-03-26T13:35:15.808Z,1.98
2023-03-26T13:37:56.856Z,2.42
2023-03-26T13:40:34.817Z,1.90
2023-03-26T13:43:10.314Z,1.92
2023-03-26T13:45:49.576Z,4.57
2023-03-26T13:48:24.412Z,1.92
2023-03-26T13:51:13.053Z,1.67
2023-03-26T13:53:55.268Z,2.78
2023-03-26T13:56:28.228Z,2.17
2023-03-26T13:59:01.254Z,2.65
2023-03-26T14:01:36.321Z,2.08
2023-03-26T14:04:17.812Z,1.45
2023-03-26T14:06:57.154Z,2.00
2023-03-26T14:09:32.041Z,3.13
2023-03-26T14:12:21.792Z,2.40
2023-03-26T14:14:58.899Z,2.20
2023-03-26T14:17:34.316Z,2.10
2023-03-26T14:20:27.032Z,1.38
2023-03-26T14:23:02.801Z,2.47
2023-03-26T14:25:47.209Z,2.40
2023-03-26T14:28:47.618Z,1.88
2023-03-26T14:31:23.701Z,1.88
2023-03-26T14:33:55.875Z,2.17
2023-03-26T14:36:43.854Z,2.33
2023-03-26T14:39:47.940Z,1.45
2023-03-26T14:42:55.151Z,1.42
2023-03-26T14:45:55.562Z,1.48
2023-03-26T14:48:57.263Z,1.52
2023-03-26T14:51:29.072Z,1.20
2023-03-26T14:54:01.603Z,1.58
2023-03-26T14:56:47.027Z,1.67
2023-03-26T14:59:34.760Z,1.48
2023-03-26T15:02:26.298Z,2.22
2023-03-26T15:05:11.445Z,2.65
2023-03-26T15:08:05.761Z,3.93
2023-03-26T15:11:09.995Z,1.98
2023-03-26T15:14:01.879Z,1.55
2023-03-26T15:16:31.437Z,2.78
2023-03-26T15:19:22.780Z,4.47
2023-03-26T15:22:12.670Z,2.40
2023-03-26T15:25:10.392Z,2.10
2023-03-26T15:27:55.051Z,2.55
2023-03-26T15:30:50.238Z,1.85
2023-03-26T15:33:43.849Z,2.97
2023-03-26T15:36:38.223Z,2.90
2023-03-26T15:39:23.405Z,5.13
2023-03-26T15:41:58.055Z,5.90
2023-03-26T15:45:15.719Z,5.65
2023-03-26T15:50:31.652Z,5.72
2023-03-26T15:53:23.537Z,10.38
2023-03-26T15:56:04.738Z,7.35
2023-03-26T15:58:41.685Z,11.45
2023-03-26T16:01:42.434Z,8.95
2023-03-26T16:04:50.278Z,5.10
2023-03-26T16:07:42.453Z,6.57
2023-03-26T16:10:46.634Z,4.20
2023-03-26T16:13:26.615Z,2.80
2023-03-26T16:15:56.123Z,2.95
2023-03-26T16:18:30.397Z,2.80
2023-03-26T16:21:32.354Z,3.60
2023-03-26T16:24:02.173Z,2.55
2023-03-26T16:26:31.829Z,1.80
2023-03-26T16:29:14.297Z,1.92
2023-03-26T16:32:05.820Z,1.90
2023-03-26T16:34:59.418Z,7.90
2023-03-26T16:37:37.911Z,11.50
2023-03-26T16:40:20.790Z,5.78
2023-03-26T16:43:05.973Z,2.80
2023-03-26T16:45:56.863Z,2.47
2023-03-26T16:48:35.005Z,2.42
2023-03-26T16:51:27.347Z,2.58
2023-03-26T16:53:58.241Z,3.30
2023-03-26T16:57:06.552Z,3.45
2023-03-26T17:00:05.391Z,3.13
2023-03-26T17:03:00.500Z,2.95
2023-03-26T17:05:34.296Z,4.00
2023-03-26T17:08:36.385Z,3.45
2023-03-26T17:11:09.169Z,4.35
2023-03-26T17:13:52.934Z,4.05
2023-03-26T17:16:28.725Z,4.90
2023-03-26T17:19:05.364Z,6.93
2023-03-26T17:21:49.958Z,4.82
2023-03-26T17:24:26.592Z,5.97
2023-03-26T17:27:00.298Z,6.50
2023-03-26T17:29:45.543Z,4.82
2023-03-26T17:32:15.516Z,4.60
2023-03-26T17:34:50.978Z,5.57
2023-03-26T17:37:18.856Z,3.67
2023-03-26T17:39:48.192Z,4.03
2023-03-26T17:42:35.541Z,6.72
2023-03-26T17:45:25.097Z,6.05
2023-03-26T17:48:00.107Z,5.10
2023-03-26T17:50:32.051Z,5.00
2023-03-26T17:53:05.925Z,5.90
2023-03-26T17:55:36.445Z,7.40
2023-03-26T17:58:05.733Z,6.03
2023-03-26T18:00:42.266Z,7.38
2023-03-26T18:03:24.115Z,8.23
2023-03-26T18:05:57.237Z,10.95
2023-03-26T18:09:01.161Z,8.38
2023-03-26T18:11:50.789Z,7.47
2023-03-26T18:14:38.749Z,7.20
2023-03-26T18:17:06.387Z,6.07
2023-03-26T18:19:52.403Z,6.78
2023-03-26T18:22:30.519Z,5.70
2023-03-26T18:25:00.613Z,6.43
2023-03-26T18:27:36.910Z,5.75
2023-03-26T18:30:14.290Z,5.50
2023-03-26T18:32:52.429Z,4.57
2023-03-26T18:35:21.522Z,4.38
2023-03-26T18:37:51.911Z,4.97
2023-03-26T18:40:21.437Z,3.85
2023-03-26T18:42:55.142Z,4.18
2023-03-26T18:45:31.639Z,4.60
2023-03-26T18:48:02.075Z,5.82
2023-03-26T18:50:34.729Z,4.32
2023-03-26T18:53:01.633Z,6.15
2023-03-26T18:55:30.750Z,5.47
2023-03-26T18:57:57.724Z,5.47
2023-03-26T19:00:27.808Z,5.78
2023-03-26T19:03:03.544Z,5.85
2023-03-26T19:05:32.975Z,6.60
2023-03-26T19:08:03.608Z,5.57
2023-03-26T19:10:33.005Z,6.07
2023-03-26T19:13:03.394Z,5.32
2023-03-26T19:15:35.519Z,7.13
2023-03-26T19:18:12.174Z,5.32
2023-03-26T19:20:45.607Z,5.25
2023-03-26T19:23:21.674Z,4.00
2023-03-26T19:26:00.100Z,5.32
2023-03-26T19:28:31.778Z,4.32
2023-03-26T19:31:15.641Z,5.05
2023-03-26T19:33:44.272Z,5.70
2023-03-26T19:36:14.259Z,5.82
2023-03-26T19:38:52.820Z,5.15
2023-03-26T19:41:31.119Z,5.18
2023-03-26T19:44:26.524Z,4.43
2023-03-26T19:47:02.257Z,4.90
2023-03-26T19:49:42.345Z,5.65
2023-03-26T19:52:17.614Z,5.35
2023-03-26T19:55:00.098Z,4.75
2023-03-26T19:57:37.254Z,4.97
2023-03-26T20:00:13.366Z,4.82
2023-03-26T20:02:42.212Z,4.72
2023-03-26T20:05:31.098Z,4.07
2023-03-26T20:08:00.004Z,5.47
2023-03-26T20:10:27.608Z,5.18
2023-03-26T20:12:54.259Z,5.75
2023-03-26T20:15:26.214Z,5.15
2023-03-26T20:17:54.540Z,5.03
2023-03-26T20:20:25.384Z,4.90
2023-03-26T20:22:53.813Z,4.93
2023-03-26T20:25:23.366Z,3.90
2023-03-26T20:27:52.985Z,5.32
2023-03-26T20:30:36.397Z,4.82
2023-03-26T20:33:12.521Z,4.65
2023-03-26T20:35:40.189Z,4.32
2023-03-26T20:38:09.609Z,4.38
2023-03-26T20:40:36.728Z,5.35
2023-03-26T20:43:03.252Z,4.78
2023-03-26T20:45:29.949Z,4.28
2023-03-26T20:47:57.232Z,5.13
2023-03-26T20:50:24.379Z,4.82
2023-03-26T20:52:51.022Z,4.80
2023-03-26T20:55:21.359Z,5.70
2023-03-26T20:57:48.648Z,5.13
2023-03-26T21:00:17.466Z,4.55
2023-03-26T21:02:44.078Z,4.38
2023-03-26T21:05:14.886Z,4.80
2023-03-26T21:07:42.953Z,5.07
2023-03-26T21:10:14.281Z,4.32
2023-03-26T21:13:17.867Z,3.40
2023-03-26T21:15:45.143Z,3.90
2023-03-26T21:18:12.195Z,3.70
2023-03-26T21:20:39.524Z,4.38
2023-03-26T21:23:08.764Z,4.43
2023-03-26T21:25:53.917Z,3.67
2023-03-26T21:28:42.256Z,4.15
2023-03-26T21:31:20.431Z,4.18
2023-03-26T21:33:49.274Z,5.03
2023-03-26T21:36:18.026Z,4.05
2023-03-26T21:38:45.540Z,4.00
2023-03-26T21:41:38.514Z,3.85
2023-03-26T21:44:05.411Z,3.53
2023-03-26T21:46:32.291Z,3.90
2023-03-26T21:48:59.084Z,3.30
2023-03-26T21:51:26.155Z,3.95
2023-03-26T21:53:53.028Z,3.88
2023-03-26T21:56:25.553Z,3.17
2023-03-26T21:59:02.539Z,3.72
2023-03-26T22:01:43.126Z,3.50
2023-03-26T22:04:12.760Z,3.33
2023-03-26T22:07:19.702Z,3.53
2023-03-26T22:09:46.954Z,3.28
2023-03-26T22:12:13.702Z,3.03
2023-03-26T22:14:40.520Z,3.85
2023-03-26T22:17:07.461Z,3.33
2023-03-26T22:19:34.636Z,3.38
2023-03-26T22:22:01.666Z,3.72
2023-03-26T22:24:28.562Z,4.95
2023-03-26T22:26:55.133Z,3.50
2023-03-26T22:29:21.858Z,3.95
2023-03-26T22:31:48.545Z,3.75
2023-03-26T22:34:15.230Z,3.50
2023-03-26T22:36:41.883Z,4.53
2023-03-26T22:39:08.444Z,3.75
2023-03-26T22:41:34.954Z,3.92
2023-03-26T22:44:12.941Z,4.38
2023-03-26T22:46:48.961Z,4.72
2023-03-26T22:49:16.278Z,4.00
2023-03-26T22:51:42.883Z,4.07
2023-03-26T22:54:09.643Z,3.90
2023-03-26T22:56:37.074Z,3.60
2023-03-26T22:59:03.905Z,3.45
2023-03-26T23:01:30.780Z,3.95
2023-03-26T23:03:57.916Z,3.70
2023-03-26T23:06:25.207Z,4.03
2023-03-26T23:08:51.869Z,3.80
2023-03-26T23:11:21.920Z,3.35
2023-03-26T23:13:49.048Z,3.70
2023-03-26T23:16:17.592Z,3.38
2023-03-26T23:18:44.912Z,3.65
2023-03-26T23:21:16.945Z,3.55
2023-03-26T23:23:43.917Z,3.85
2023-03-26T23:26:10.926Z,4.13
2023-03-26T23:28:38.335Z,3.72
2023-03-26T23:31:07.215Z,4.38
2023-03-26T23:33:36.933Z,3.83
2023-03-26T23:36:08.977Z,3.58
2023-03-26T23:38:44.005Z,3.97
2023-03-26T23:41:15.150Z,3.45
2023-03-26T23:43:54.808Z,3.40
2023-03-26T23:46:30.903Z,3.15
2023-03-26T23:48:59.852Z,3.97
2023-03-26T23:51:26.675Z,3.28
2023-03-26T23:53:54.069Z,3.53
2023-03-26T23:56:21.097Z,3.72
2023-03-26T23:58:48.951Z,3.83
